createdAt,value
2023-04-14T00:01:18.491Z,97248.97
2023-04-14T00:02:50.899Z,97254.84
2023-04-14T00:04:22.840Z,97243.13
2023-04-14T00:05:54.593Z,97243.63
2023-04-14T00:07:26.693Z,97251.28
2023-04-14T00:08:58.956Z,97246.22
2023-04-14T00:10:30.707Z,97243.34
2023-04-14T00:12:02.386Z,97246.91
2023-04-14T00:13:34.029Z,97231.75
2023-04-14T00:15:06.412Z,97238.59
2023-04-14T00:16:39.631Z,97244.31
2023-04-14T00:18:11.317Z,97248.22
2023-04-14T00:19:42.933Z,97252.09
2023-04-14T00:21:14.723Z,97250.81
2023-04-14T00:22:46.409Z,97246.75
2023-04-14T00:24:18.125Z,97244.47
2023-04-14T00:25:50.918Z,97237.03
2023-04-14T00:27:23.694Z,97241.19
2023-04-14T00:28:55.485Z,97243.94
2023-04-14T00:30:27.104Z,97239.53
2023-04-14T00:31:58.732Z,97238.31
2023-04-14T00:33:30.424Z,97239.34
2023-04-14T00:35:03.707Z,97246.31
2023-04-14T00:36:35.613Z,97244.75
2023-04-14T00:38:07.269Z,97242.38
2023-04-14T00:39:38.909Z,97240.63
2023-04-14T00:41:10.593Z,97251.44
2023-04-14T00:42:45.760Z,97251.88
2023-04-14T00:44:17.501Z,97253.81
2023-04-14T00:45:50.869Z,97245.72
2023-04-14T00:47:25.721Z,97255.91
2023-04-14T00:48:57.630Z,97251.44
2023-04-14T00:50:29.390Z,97251.81
2023-04-14T00:52:02.714Z,97259.22
2023-04-14T00:53:34.534Z,97261.59
2023-04-14T00:55:06.778Z,97267.44
2023-04-14T00:56:38.863Z,97272.63
2023-04-14T00:58:11.117Z,97263.75
2023-04-14T00:59:42.844Z,97273.66
2023-04-14T01:01:16.023Z,97272.56
2023-04-14T01:02:48.714Z,97270.19
2023-04-14T01:04:21.431Z,97276.66
2023-04-14T01:05:53.147Z,97261.72
2023-04-14T01:07:27.003Z,97263.97
2023-04-14T01:08:59.769Z,97278.22
2023-04-14T01:10:39.024Z,97269.38
2023-04-14T01:12:50.934Z,97270.03
2023-04-14T01:14:47.260Z,97271.28
2023-04-14T01:16:49.598Z,97278.31
2023-04-14T01:18:29.101Z,97279.91
2023-04-14T01:20:10.854Z,97284.13
2023-04-14T01:21:49.844Z,97279.13
2023-04-14T01:23:27.543Z,97283.28
2023-04-14T01:25:23.313Z,97282.22
2023-04-14T01:27:16.363Z,97284.00
2023-04-14T01:29:06.321Z,97288.38
2023-04-14T01:30:56.205Z,97290.00
2023-04-14T01:32:34.656Z,97289.50
2023-04-14T01:34:35.683Z,97298.09
2023-04-14T01:36:13.722Z,97291.63
2023-04-14T01:37:49.846Z,97301.88
2023-04-14T01:39:26.721Z,97295.44
2023-04-14T01:41:07.411Z,97309.22
2023-04-14T01:42:46.471Z,97302.69
2023-04-14T01:44:22.401Z,97298.56
2023-04-14T01:45:57.848Z,97302.06
2023-04-14T01:47:30.073Z,97302.47
2023-04-14T01:49:03.976Z,97306.66
2023-04-14T01:50:37.834Z,97303.50
2023-04-14T01:52:11.478Z,97296.25
2023-04-14T01:53:46.169Z,97300.75
2023-04-14T01:55:19.504Z,97302.97
2023-04-14T01:56:52.848Z,97305.56
2023-04-14T01:58:26.181Z,97304.06
2023-04-14T02:00:00.656Z,97307.66
2023-04-14T02:01:34.697Z,97307.09
2023-04-14T02:03:07.314Z,97299.31
2023-04-14T02:04:41.532Z,97306.25
2023-04-14T02:06:14.321Z,97308.47
2023-04-14T02:07:48.343Z,97307.47
2023-04-14T02:09:21.155Z,97307.34
2023-04-14T02:10:54.300Z,97306.09
2023-04-14T02:12:28.213Z,97304.38
2023-04-14T02:14:00.889Z,97305.47
2023-04-14T02:15:33.834Z,97303.59
2023-04-14T02:17:07.348Z,97299.91
2023-04-14T02:18:41.432Z,97299.66
2023-04-14T02:20:14.777Z,97300.75
2023-04-14T02:21:49.744Z,97301.13
2023-04-14T02:23:21.823Z,97306.63
2023-04-14T02:24:55.185Z,97304.16
2023-04-14T02:26:32.590Z,97300.63
2023-04-14T02:28:09.384Z,97293.94
2023-04-14T02:29:45.223Z,97300.66
2023-04-14T02:31:23.850Z,97300.50
2023-04-14T02:33:05.592Z,97296.00
2023-04-14T02:34:47.853Z,97293.41
2023-04-14T02:36:24.333Z,97289.31
2023-04-14T02:38:19.219Z,97293.03
2023-04-14T02:39:58.860Z,97293.31
2023-04-14T02:41:32.950Z,97296.34
2023-04-14T02:43:31.726Z,97302.47
2023-04-14T02:45:12.002Z,97296.06
2023-04-14T02:47:06.831Z,97304.13
2023-04-14T02:48:43.640Z,97296.06
2023-04-14T02:50:18.494Z,97305.91
2023-04-14T02:52:00.671Z,97301.81
2023-04-14T02:53:33.242Z,97309.63
2023-04-14T02:55:13.208Z,97312.88
2023-04-14T02:56:45.283Z,97306.22
2023-04-14T02:58:17.638Z,97309.22
2023-04-14T02:59:50.790Z,97309.13
2023-04-14T03:01:24.438Z,97312.81
2023-04-14T03:02:58.564Z,97311.72
2023-04-14T03:04:35.604Z,97312.69
2023-04-14T03:06:15.475Z,97314.19
2023-04-14T03:07:50.790Z,97311.75
2023-04-14T03:09:24.142Z,97310.13
2023-04-14T03:10:57.273Z,97310.50
2023-04-14T03:12:33.695Z,97310.38
2023-04-14T03:14:05.982Z,97308.88
2023-04-14T03:15:39.987Z,97314.06
2023-04-14T03:17:14.705Z,97311.88
2023-04-14T03:18:49.418Z,97318.72
2023-04-14T03:20:23.413Z,97320.63
2023-04-14T03:22:00.232Z,97317.88
2023-04-14T03:23:33.999Z,97314.72
2023-04-14T03:25:12.218Z,97315.72
2023-04-14T03:26:47.767Z,97314.22
2023-04-14T03:28:22.887Z,97320.19
2023-04-14T03:30:01.674Z,97313.25
2023-04-14T03:31:37.330Z,97325.09
2023-04-14T03:33:12.469Z,97309.16
2023-04-14T03:34:48.217Z,97318.81
2023-04-14T03:36:21.704Z,97312.16
2023-04-14T03:37:59.639Z,97313.78
2023-04-14T03:39:34.634Z,97303.69
2023-04-14T03:41:09.565Z,97303.44
2023-04-14T03:42:44.829Z,97303.03
2023-04-14T03:44:19.931Z,97299.19
2023-04-14T03:45:54.278Z,97295.97
2023-04-14T03:47:31.498Z,97303.69
2023-04-14T03:49:07.479Z,97297.56
2023-04-14T03:50:42.289Z,97293.63
2023-04-14T03:52:20.796Z,97293.34
2023-04-14T03:53:54.485Z,97295.41
2023-04-14T03:55:31.920Z,97301.38
2023-04-14T03:57:06.352Z,97301.22
2023-04-14T03:58:38.707Z,97300.28
2023-04-14T04:00:12.746Z,97299.16
2023-04-14T04:01:50.026Z,97298.34
2023-04-14T04:03:23.770Z,97302.28
2023-04-14T04:04:57.766Z,97316.59
2023-04-14T04:06:29.400Z,97312.19
2023-04-14T04:08:03.137Z,97309.88
2023-04-14T04:09:36.985Z,97314.91
2023-04-14T04:11:09.731Z,97311.50
2023-04-14T04:12:42.941Z,97317.72
2023-04-14T04:14:17.613Z,97318.97
2023-04-14T04:15:51.649Z,97322.38
2023-04-14T04:17:24.667Z,97323.84
2023-04-14T04:18:59.222Z,97328.88
2023-04-14T04:20:38.255Z,97325.03
2023-04-14T04:22:11.903Z,97330.06
2023-04-14T04:23:48.085Z,97323.41
2023-04-14T04:25:20.680Z,97319.31
2023-04-14T04:27:01.822Z,97317.56
2023-04-14T04:28:36.576Z,97321.63
2023-04-14T04:30:09.600Z,97321.78
2023-04-14T04:31:42.349Z,97327.59
2023-04-14T04:33:15.111Z,97329.66
2023-04-14T04:34:47.976Z,97330.84
2023-04-14T04:36:20.734Z,97337.28
2023-04-14T04:37:54.159Z,97336.16
2023-04-14T04:39:25.894Z,97349.84
2023-04-14T04:40:57.910Z,97339.09
2023-04-14T04:42:32.252Z,97347.91
2023-04-14T04:44:04.090Z,97345.72
2023-04-14T04:45:50.593Z,97349.91
2023-04-14T04:47:22.478Z,97337.09
2023-04-14T04:48:55.525Z,97342.28
2023-04-14T04:50:30.348Z,97350.16
2023-04-14T04:52:01.940Z,97354.31
2023-04-14T04:53:33.604Z,97359.41
2023-04-14T04:55:05.833Z,97361.84
2023-04-14T04:56:37.469Z,97365.56
2023-04-14T04:58:09.438Z,97357.31
2023-04-14T04:59:40.997Z,97359.09
2023-04-14T05:01:12.797Z,97355.66
2023-04-14T05:02:44.459Z,97357.16
2023-04-14T05:04:16.184Z,97347.28
2023-04-14T05:05:47.750Z,97344.44
2023-04-14T05:07:19.737Z,97349.22
2023-04-14T05:08:52.457Z,97350.16
2023-04-14T05:10:23.999Z,97362.72
2023-04-14T05:11:57.328Z,97357.50
2023-04-14T05:13:28.882Z,97359.09
2023-04-14T05:15:00.527Z,97360.84
2023-04-14T05:16:32.203Z,97359.09
2023-04-14T05:18:03.855Z,97357.22
2023-04-14T05:19:35.620Z,97354.91
2023-04-14T05:21:14.885Z,97362.84
2023-04-14T05:22:46.421Z,97358.50
2023-04-14T05:24:17.932Z,97362.47
2023-04-14T05:25:49.489Z,97361.66
2023-04-14T05:27:22.007Z,97369.00
2023-04-14T05:28:53.566Z,97368.88
2023-04-14T05:30:25.213Z,97365.63
2023-04-14T05:31:56.748Z,97366.03
2023-04-14T05:33:28.419Z,97367.03
2023-04-14T05:34:59.990Z,97373.53
2023-04-14T05:36:31.751Z,97367.16
2023-04-14T05:38:03.255Z,97374.66
2023-04-14T05:39:35.319Z,97373.06
2023-04-14T05:41:07.743Z,97373.88
2023-04-14T05:42:40.944Z,97380.03
2023-04-14T05:44:12.510Z,97380.44
2023-04-14T05:45:47.025Z,97386.69
2023-04-14T05:47:19.062Z,97382.63
2023-04-14T05:48:50.897Z,97376.19
2023-04-14T05:50:22.579Z,97380.88
2023-04-14T05:51:57.276Z,97380.97
2023-04-14T05:53:28.809Z,97380.72
2023-04-14T05:55:00.423Z,97378.53
2023-04-14T05:56:32.063Z,97386.84
2023-04-14T05:58:03.596Z,97388.75
2023-04-14T05:59:35.283Z,97386.56
2023-04-14T06:01:06.988Z,97386.97
2023-04-14T06:02:39.811Z,97398.56
2023-04-14T06:04:11.840Z,97389.44
2023-04-14T06:05:43.847Z,97396.06
2023-04-14T06:07:15.759Z,97397.44
2023-04-14T06:08:47.391Z,97387.22
2023-04-14T06:10:19.123Z,97392.09
2023-04-14T06:11:50.674Z,97386.75
2023-04-14T06:13:22.999Z,97391.81
2023-04-14T06:14:55.529Z,97389.28
2023-04-14T06:16:27.158Z,97391.72
2023-04-14T06:17:58.820Z,97394.66
2023-04-14T06:19:30.478Z,97390.81
2023-04-14T06:21:02.522Z,97387.84
2023-04-14T06:22:34.108Z,97388.88
2023-04-14T06:24:06.049Z,97387.63
2023-04-14T06:25:37.609Z,97389.53
2023-04-14T06:27:09.360Z,97379.63
2023-04-14T06:28:43.269Z,97384.13
2023-04-14T06:30:16.883Z,97381.59
2023-04-14T06:31:48.847Z,97382.56
2023-04-14T06:33:20.421Z,97384.34
2023-04-14T06:34:53.399Z,97376.25
2023-04-14T06:36:25.077Z,97373.91
2023-04-14T06:37:57.221Z,97376.00
2023-04-14T06:39:28.736Z,97370.34
2023-04-14T06:41:00.341Z,97371.78
2023-04-14T06:42:31.903Z,97377.13
2023-04-14T06:44:03.541Z,97382.47
2023-04-14T06:45:35.111Z,97382.66
2023-04-14T06:47:07.112Z,97383.38
2023-04-14T06:48:38.778Z,97385.41
2023-04-14T06:50:10.820Z,97378.69
2023-04-14T06:51:42.462Z,97383.38
2023-04-14T06:53:14.387Z,97379.19
2023-04-14T06:54:45.922Z,97378.41
2023-04-14T06:56:17.572Z,97384.44
2023-04-14T06:57:49.167Z,97378.19
2023-04-14T06:59:23.107Z,97366.13
2023-04-14T07:01:03.157Z,97368.38
2023-04-14T07:02:34.896Z,97356.56
2023-04-14T07:04:08.040Z,97359.09
2023-04-14T07:05:40.044Z,97364.41
2023-04-14T07:07:11.752Z,97359.19
2023-04-14T07:08:44.041Z,97361.94
2023-04-14T07:10:15.714Z,97354.88
2023-04-14T07:11:47.366Z,97344.91
2023-04-14T07:13:19.036Z,97336.22
2023-04-14T07:14:53.289Z,97346.19
2023-04-14T07:16:25.005Z,97342.94
2023-04-14T07:17:59.399Z,97340.75
2023-04-14T07:19:32.569Z,97346.09
2023-04-14T07:21:04.340Z,97339.72
2023-04-14T07:22:35.998Z,97342.22
2023-04-14T07:24:07.825Z,97341.75
2023-04-14T07:25:39.368Z,97331.75
2023-04-14T07:27:16.835Z,97338.44
2023-04-14T07:28:48.487Z,97322.91
2023-04-14T07:30:20.371Z,97315.66
2023-04-14T07:31:52.227Z,97316.03
2023-04-14T07:33:23.901Z,97314.56
2023-04-14T07:34:57.681Z,97321.34
2023-04-14T07:36:31.390Z,97318.63
2023-04-14T07:38:02.998Z,97312.78
2023-04-14T07:39:34.888Z,97316.75
2023-04-14T07:41:07.957Z,97314.50
2023-04-14T07:42:39.513Z,97314.25
2023-04-14T07:44:11.212Z,97316.03
2023-04-14T07:45:43.352Z,97309.31
2023-04-14T07:47:14.959Z,97316.09
2023-04-14T07:48:46.667Z,97308.28
2023-04-14T07:50:19.792Z,97311.75
2023-04-14T07:51:51.546Z,97307.84
2023-04-14T07:53:23.218Z,97305.94
2023-04-14T07:54:54.826Z,97315.97
2023-04-14T07:56:26.496Z,97309.44
2023-04-14T07:57:58.156Z,97304.13
2023-04-14T07:59:31.406Z,97310.19
2023-04-14T08:01:04.374Z,97311.19
2023-04-14T08:02:36.794Z,97315.88
2023-04-14T08:04:08.792Z,97307.94
2023-04-14T08:05:42.189Z,97308.22
2023-04-14T08:07:13.909Z,97318.75
2023-04-14T08:08:45.561Z,97317.47
2023-04-14T08:10:17.180Z,97326.78
2023-04-14T08:11:48.775Z,97329.88
2023-04-14T08:13:20.454Z,97323.19
2023-04-14T08:14:57.104Z,97331.25
2023-04-14T08:16:29.230Z,97319.94
2023-04-14T08:18:01.055Z,97325.09
2023-04-14T08:19:33.836Z,97318.66
2023-04-14T08:21:05.557Z,97315.63
2023-04-14T08:22:37.856Z,97306.03
2023-04-14T08:24:09.515Z,97314.94
2023-04-14T08:25:42.256Z,97312.28
2023-04-14T08:27:13.874Z,97303.75
2023-04-14T08:28:46.744Z,97302.53
2023-04-14T08:30:18.416Z,97296.50
2023-04-14T08:31:50.073Z,97311.63
2023-04-14T08:33:21.866Z,97303.38
2023-04-14T08:35:35.632Z,97302.25
2023-04-14T08:36:46.518Z,97303.41
2023-04-14T08:38:18.226Z,97300.03
2023-04-14T08:39:49.764Z,97309.91
2023-04-14T08:41:22.247Z,97295.84
2023-04-14T08:42:53.789Z,97299.97
2023-04-14T08:44:25.488Z,97300.03
2023-04-14T08:45:58.348Z,97291.19
2023-04-14T08:47:33.298Z,97289.69
2023-04-14T08:49:07.528Z,97293.34
2023-04-14T08:50:49.338Z,97285.69
2023-04-14T08:52:23.472Z,97288.13
2023-04-14T08:53:57.097Z,97289.78
2023-04-14T08:55:30.187Z,97285.66
2023-04-14T08:57:03.625Z,97283.09
2023-04-14T08:58:35.465Z,97287.25
2023-04-14T09:00:07.844Z,97282.16
2023-04-14T09:01:40.096Z,97279.31
2023-04-14T09:03:12.704Z,97273.88
2023-04-14T09:04:46.083Z,97280.94
2023-04-14T09:06:18.555Z,97270.03
2023-04-14T09:07:51.210Z,97278.03
2023-04-14T09:09:23.657Z,97272.22
2023-04-14T09:10:55.478Z,97285.75
2023-04-14T09:12:28.163Z,97281.66
2023-04-14T09:14:00.800Z,97275.44
2023-04-14T09:15:32.855Z,97277.75
2023-04-14T09:17:04.576Z,97276.00
2023-04-14T09:18:36.806Z,97273.25
2023-04-14T09:20:37.535Z,97266.66
2023-04-14T09:22:04.707Z,97271.00
2023-04-14T09:23:37.443Z,97264.66
2023-04-14T09:25:10.701Z,97273.19
2023-04-14T09:26:42.676Z,97266.75
2023-04-14T09:28:14.811Z,97272.91
2023-04-14T09:29:47.630Z,97266.81
2023-04-14T09:31:19.879Z,97255.75
2023-04-14T09:32:56.458Z,97263.78
2023-04-14T09:34:28.251Z,97271.81
2023-04-14T09:36:00.042Z,97282.47
2023-04-14T09:37:43.707Z,97291.34
2023-04-14T09:39:18.108Z,97276.97
2023-04-14T09:40:49.751Z,97284.75
2023-04-14T09:42:38.458Z,97275.47
2023-04-14T09:44:10.323Z,97275.13
2023-04-14T09:45:44.899Z,97277.78
2023-04-14T09:47:20.577Z,97272.13
2023-04-14T09:48:55.702Z,97268.34
2023-04-14T09:50:27.626Z,97266.06
2023-04-14T09:52:09.572Z,97255.09
2023-04-14T09:53:41.215Z,97257.84
2023-04-14T09:55:14.427Z,97264.09
2023-04-14T09:56:46.416Z,97261.22
2023-04-14T09:58:23.537Z,97262.09
2023-04-14T09:59:56.568Z,97255.69
2023-04-14T10:01:34.120Z,97261.84
2023-04-14T10:03:06.260Z,97263.53
2023-04-14T10:04:38.047Z,97262.22
2023-04-14T10:06:16.417Z,97258.06
2023-04-14T10:07:48.239Z,97256.84
2023-04-14T10:09:23.978Z,97255.97
2023-04-14T10:10:55.460Z,97259.75
2023-04-14T10:12:27.366Z,97259.88
2023-04-14T10:14:01.942Z,97243.78
2023-04-14T10:15:33.800Z,97247.41
2023-04-14T10:17:07.137Z,97246.09
2023-04-14T10:18:38.804Z,97240.34
2023-04-14T10:20:10.895Z,97237.88
2023-04-14T10:21:42.588Z,97234.38
2023-04-14T10:23:14.584Z,97227.88
2023-04-14T10:24:47.173Z,97232.34
2023-04-14T10:26:19.635Z,97231.47
2023-04-14T10:27:51.652Z,97232.28
2023-04-14T10:29:23.758Z,97234.13
2023-04-14T10:30:57.622Z,97235.19
2023-04-14T10:32:34.096Z,97233.03
2023-04-14T10:34:11.217Z,97231.16
2023-04-14T10:35:47.977Z,97215.09
2023-04-14T10:37:19.917Z,97204.94
2023-04-14T10:39:02.619Z,97205.00
2023-04-14T10:40:53.640Z,97206.06
2023-04-14T10:42:26.179Z,97198.97
2023-04-14T10:43:57.812Z,97191.91
2023-04-14T10:45:29.631Z,97180.84
2023-04-14T10:47:04.964Z,97193.09
2023-04-14T10:48:38.505Z,97186.81
2023-04-14T10:50:13.296Z,97187.22
2023-04-14T10:51:49.729Z,97187.72
2023-04-14T10:53:24.791Z,97189.84
2023-04-14T10:55:01.203Z,97194.00
2023-04-14T10:56:33.013Z,97191.97
2023-04-14T10:58:06.461Z,97185.66
2023-04-14T10:59:46.138Z,97180.53
2023-04-14T11:01:31.514Z,97163.88
2023-04-14T11:03:05.180Z,97169.63
2023-04-14T11:05:05.960Z,97160.72
2023-04-14T11:06:46.869Z,97154.47
2023-04-14T11:08:27.215Z,97157.19
2023-04-14T11:10:26.482Z,97161.31
2023-04-14T11:12:23.536Z,97150.38
2023-04-14T11:14:11.522Z,97151.38
2023-04-14T11:15:49.069Z,97156.44
2023-04-14T11:17:24.786Z,97153.31
2023-04-14T11:18:56.476Z,97145.53
2023-04-14T11:20:28.143Z,97148.72
2023-04-14T11:21:59.794Z,97150.72
2023-04-14T11:23:32.698Z,97148.41
2023-04-14T11:25:04.999Z,97151.88
2023-04-14T11:26:36.714Z,97154.31
2023-04-14T11:28:08.842Z,97157.25
2023-04-14T11:29:40.421Z,97150.06
2023-04-14T11:31:14.816Z,97159.63
2023-04-14T11:32:59.722Z,97155.94
2023-04-14T11:34:31.669Z,97154.34
2023-04-14T11:36:05.332Z,97155.00
2023-04-14T11:37:37.620Z,97150.94
2023-04-14T11:39:09.275Z,97153.22
2023-04-14T11:40:40.971Z,97158.06
2023-04-14T11:42:13.023Z,97157.94
2023-04-14T11:43:47.025Z,97157.47
2023-04-14T11:45:18.977Z,97150.31
2023-04-14T11:46:50.765Z,97144.44
2023-04-14T11:48:22.471Z,97145.88
2023-04-14T11:49:54.172Z,97145.16
2023-04-14T11:51:31.521Z,97139.66
2023-04-14T11:53:08.332Z,97142.88
2023-04-14T11:54:40.054Z,97141.47
2023-04-14T11:56:13.130Z,97135.47
2023-04-14T11:57:48.841Z,97134.66
2023-04-14T11:59:20.649Z,97131.34
2023-04-14T12:00:55.929Z,97125.31
2023-04-14T12:02:28.015Z,97136.91
2023-04-14T12:04:00.098Z,97125.56
2023-04-14T12:05:33.810Z,97122.00
2023-04-14T12:07:19.387Z,97125.44
2023-04-14T12:08:55.180Z,97119.97
2023-04-14T12:10:28.111Z,97119.47
2023-04-14T12:11:59.860Z,97112.81
2023-04-14T12:13:31.495Z,97117.44
2023-04-14T12:15:04.248Z,97114.22
2023-04-14T12:16:36.204Z,97108.59
2023-04-14T12:18:14.357Z,97111.03
2023-04-14T12:19:46.240Z,97104.47
2023-04-14T12:21:19.482Z,97114.41
2023-04-14T12:22:51.807Z,97111.97
2023-04-14T12:24:23.531Z,97117.28
2023-04-14T12:25:55.365Z,97108.13
2023-04-14T12:27:27.752Z,97099.84
2023-04-14T12:28:59.803Z,97082.19
2023-04-14T12:30:34.988Z,97085.91
2023-04-14T12:32:13.246Z,97071.31
2023-04-14T12:33:44.912Z,97070.81
2023-04-14T12:35:21.831Z,97073.75
2023-04-14T12:36:53.789Z,97078.38
2023-04-14T12:38:28.448Z,97074.09
2023-04-14T12:40:01.905Z,97067.16
2023-04-14T12:41:33.599Z,97074.63
2023-04-14T12:43:05.388Z,97070.81
2023-04-14T12:44:37.263Z,97075.41
2023-04-14T12:46:08.989Z,97060.72
2023-04-14T12:47:40.931Z,97065.81
2023-04-14T12:49:32.386Z,97058.91
2023-04-14T12:51:11.686Z,97055.03
2023-04-14T12:52:44.667Z,97063.31
2023-04-14T12:54:16.404Z,97059.25
2023-04-14T12:55:48.869Z,97052.56
2023-04-14T12:57:23.580Z,97048.84
2023-04-14T12:58:55.420Z,97055.72
2023-04-14T13:00:28.051Z,97059.41
2023-04-14T13:01:59.881Z,97045.28
2023-04-14T13:03:42.044Z,97046.06
2023-04-14T13:05:14.515Z,97046.22
2023-04-14T13:06:46.295Z,97048.59
2023-04-14T13:08:17.940Z,97049.09
2023-04-14T13:09:50.984Z,97043.44
2023-04-14T13:11:23.734Z,97048.53
2023-04-14T13:12:55.523Z,97044.72
2023-04-14T13:14:27.165Z,97040.47
2023-04-14T13:16:12.950Z,97039.50
2023-04-14T13:17:47.274Z,97036.16
2023-04-14T13:19:19.007Z,97036.16
2023-04-14T13:20:56.529Z,97032.81
2023-04-14T13:22:28.179Z,97034.66
2023-04-14T13:23:59.894Z,97028.19
2023-04-14T13:25:31.891Z,97022.00
2023-04-14T13:27:03.597Z,97028.50
2023-04-14T13:28:36.542Z,97019.81
2023-04-14T13:30:09.050Z,97019.44
2023-04-14T13:31:41.263Z,97014.09
2023-04-14T13:33:13.250Z,97009.75
2023-04-14T13:34:46.517Z,96996.38
2023-04-14T13:36:18.238Z,96994.09
2023-04-14T13:37:49.934Z,96996.59
2023-04-14T13:39:22.802Z,96998.53
2023-04-14T13:40:54.467Z,96990.22
2023-04-14T13:42:26.665Z,96988.22
2023-04-14T13:43:58.366Z,96987.28
2023-04-14T13:45:30.804Z,96982.28
2023-04-14T13:47:02.820Z,96985.84
2023-04-14T13:48:34.433Z,96983.00
2023-04-14T13:50:06.519Z,96978.38
2023-04-14T13:51:40.925Z,96972.81
2023-04-14T13:53:12.773Z,96967.81
2023-04-14T13:54:44.392Z,96966.78
2023-04-14T13:56:16.140Z,96981.19
2023-04-14T13:57:47.774Z,96972.47
2023-04-14T13:59:19.485Z,96969.50
2023-04-14T14:00:51.419Z,96969.50
2023-04-14T14:02:23.950Z,96967.75
2023-04-14T14:03:56.032Z,96966.28
2023-04-14T14:05:28.399Z,96973.16
2023-04-14T14:07:00.052Z,96970.72
2023-04-14T14:08:32.022Z,96963.47
2023-04-14T14:10:05.284Z,96963.38
2023-04-14T14:11:37.073Z,96958.38
2023-04-14T14:13:08.973Z,96958.81
2023-04-14T14:14:40.575Z,96955.81
2023-04-14T14:16:13.202Z,96953.38
2023-04-14T14:17:46.231Z,96957.78
2023-04-14T14:19:18.261Z,96959.03
2023-04-14T14:20:50.241Z,96948.00
2023-04-14T14:22:22.011Z,96944.97
2023-04-14T14:23:53.708Z,96945.13
2023-04-14T14:25:25.694Z,96943.13
2023-04-14T14:26:57.864Z,96948.88
2023-04-14T14:28:29.573Z,96943.28
2023-04-14T14:30:01.288Z,96946.06
2023-04-14T14:31:33.335Z,96945.72
2023-04-14T14:33:05.165Z,96944.91
2023-04-14T14:34:38.746Z,96941.59
2023-04-14T14:36:10.386Z,96942.97
2023-04-14T14:37:44.365Z,96937.91
2023-04-14T14:39:16.036Z,96937.19
2023-04-14T14:40:47.669Z,96947.31
2023-04-14T14:42:19.318Z,96940.88
2023-04-14T14:43:51.298Z,96943.06
2023-04-14T14:45:30.431Z,96945.03
2023-04-14T14:47:02.970Z,96941.09
2023-04-14T14:48:35.502Z,96950.88
2023-04-14T14:50:08.750Z,96947.53
2023-04-14T14:51:40.536Z,96953.63
2023-04-14T14:53:11.982Z,96953.38
2023-04-14T14:54:43.553Z,96946.13
2023-04-14T14:56:15.593Z,96953.75
2023-04-14T14:57:47.140Z,96950.16
2023-04-14T14:59:18.791Z,96952.53
2023-04-14T15:00:50.659Z,96946.88
2023-04-14T15:02:22.756Z,96956.44
2023-04-14T15:03:55.065Z,96947.25
2023-04-14T15:05:27.130Z,96951.00
2023-04-14T15:06:58.685Z,96949.31
2023-04-14T15:08:30.400Z,96951.75
2023-04-14T15:10:04.485Z,96945.78
2023-04-14T15:11:36.186Z,96943.22
2023-04-14T15:13:07.936Z,96938.66
2023-04-14T15:14:39.548Z,96942.38
2023-04-14T15:16:11.183Z,96943.16
2023-04-14T15:17:42.914Z,96950.22
2023-04-14T15:19:15.467Z,96949.69
2023-04-14T15:20:47.334Z,96952.22
2023-04-14T15:22:19.009Z,96949.06
2023-04-14T15:23:50.629Z,96948.16
2023-04-14T15:25:22.527Z,96943.72
2023-04-14T15:26:54.185Z,96944.50
2023-04-14T15:28:25.790Z,96943.31
2023-04-14T15:29:57.396Z,96939.41
2023-04-14T15:31:29.164Z,96928.38
2023-04-14T15:33:00.859Z,96929.53
2023-04-14T15:34:32.523Z,96933.72
2023-04-14T15:36:04.261Z,96937.00
2023-04-14T15:37:35.993Z,96941.16
2023-04-14T15:39:07.718Z,96942.59
2023-04-14T15:40:42.454Z,96934.88
2023-04-14T15:42:14.057Z,96931.81
2023-04-14T15:43:45.820Z,96938.19
2023-04-14T15:45:17.342Z,96934.97
2023-04-14T15:46:48.930Z,96937.97
2023-04-14T15:48:20.647Z,96941.63
2023-04-14T15:50:08.571Z,96936.00
2023-04-14T15:51:41.678Z,96934.00
2023-04-14T15:53:13.460Z,96944.63
2023-04-14T15:54:45.020Z,96943.50
2023-04-14T15:56:17.275Z,96942.19
2023-04-14T15:57:49.338Z,96937.69
2023-04-14T15:59:22.341Z,96938.16
2023-04-14T16:00:53.914Z,96941.34
2023-04-14T16:02:28.153Z,96943.06
2023-04-14T16:03:59.923Z,96938.72
2023-04-14T16:05:31.749Z,96940.28
2023-04-14T16:07:03.429Z,96944.88
2023-04-14T16:08:35.043Z,96943.81
2023-04-14T16:10:07.169Z,96946.09
2023-04-14T16:11:38.752Z,96952.00
2023-04-14T16:13:11.051Z,96950.13
2023-04-14T16:14:43.017Z,96947.63
2023-04-14T16:16:16.251Z,96947.22
2023-04-14T16:17:47.967Z,96941.19
2023-04-14T16:19:20.286Z,96943.31
2023-04-14T16:20:53.427Z,96945.56
2023-04-14T16:22:26.568Z,96945.72
2023-04-14T16:23:58.171Z,96944.38
2023-04-14T16:25:29.798Z,96944.56
2023-04-14T16:27:01.398Z,96949.03
2023-04-14T16:28:33.854Z,96947.44
2023-04-14T16:30:05.988Z,96952.22
2023-04-14T16:31:37.795Z,96944.16
2023-04-14T16:33:09.518Z,96946.44
2023-04-14T16:34:41.328Z,96954.34
2023-04-14T16:36:12.892Z,96944.44
2023-04-14T16:37:44.445Z,96959.47
2023-04-14T16:39:16.108Z,96954.22
2023-04-14T16:40:57.441Z,96954.63
2023-04-14T16:42:29.110Z,96953.81
2023-04-14T16:44:01.068Z,96956.06
2023-04-14T16:45:33.448Z,96960.16
2023-04-14T16:47:05.066Z,96958.97
2023-04-14T16:48:37.061Z,96958.97
2023-04-14T16:50:09.116Z,96962.00
2023-04-14T16:51:40.707Z,96956.34
2023-04-14T16:53:13.270Z,96951.91
2023-04-14T16:54:45.114Z,96954.31
2023-04-14T16:56:17.840Z,96964.84
2023-04-14T16:57:49.582Z,96955.75
2023-04-14T16:59:21.442Z,96954.34
2023-04-14T17:00:52.976Z,96953.94
2023-04-14T17:02:24.916Z,96953.75
2023-04-14T17:03:56.773Z,96950.28
2023-04-14T17:05:29.382Z,96957.16
2023-04-14T17:07:01.283Z,96956.16
2023-04-14T17:08:34.263Z,96955.59
2023-04-14T17:10:06.602Z,96956.81
2023-04-14T17:11:39.167Z,96956.63
2023-04-14T17:13:11.056Z,96959.84
2023-04-14T17:14:43.319Z,96964.94
2023-04-14T17:16:15.710Z,96966.38
2023-04-14T17:17:47.487Z,96961.94
2023-04-14T17:19:19.686Z,96963.16
2023-04-14T17:20:51.678Z,96959.66
2023-04-14T17:22:23.634Z,96958.06
2023-04-14T17:23:55.443Z,96963.16
2023-04-14T17:25:27.308Z,96958.91
2023-04-14T17:26:59.649Z,96964.81
2023-04-14T17:28:32.788Z,96963.78
2023-04-14T17:30:05.587Z,96966.22
2023-04-14T17:31:42.267Z,96965.41
2023-04-14T17:33:16.130Z,96961.97
2023-04-14T17:34:48.880Z,96965.00
2023-04-14T17:36:20.844Z,96960.75
2023-04-14T17:37:52.853Z,96970.50
2023-04-14T17:39:27.213Z,96962.97
2023-04-14T17:40:59.432Z,96963.19
2023-04-14T17:42:32.248Z,96963.19
2023-04-14T17:44:04.352Z,96968.06
2023-04-14T17:45:36.292Z,96966.81
2023-04-14T17:47:15.555Z,96968.06
2023-04-14T17:48:47.158Z,96971.88
2023-04-14T17:50:19.405Z,96967.25
2023-04-14T17:51:51.042Z,96967.81
2023-04-14T17:53:22.642Z,96966.22
2023-04-14T17:54:54.923Z,96965.56
2023-04-14T17:56:26.658Z,96965.16
2023-04-14T17:57:58.606Z,96966.34
2023-04-14T17:59:30.269Z,96962.88
2023-04-14T18:01:02.022Z,96969.31
2023-04-14T18:02:35.517Z,96966.09
2023-04-14T18:04:07.227Z,96967.06
2023-04-14T18:05:38.816Z,96972.88
2023-04-14T18:07:10.433Z,96972.66
2023-04-14T18:08:42.401Z,96970.03
2023-04-14T18:10:14.008Z,96971.22
2023-04-14T18:11:46.247Z,96979.88
2023-04-14T18:13:18.014Z,96975.22
2023-04-14T18:14:51.088Z,96981.44
2023-04-14T18:16:23.603Z,96983.81
2023-04-14T18:17:55.769Z,96983.03
2023-04-14T18:19:27.484Z,96978.75
2023-04-14T18:20:59.085Z,96980.13
2023-04-14T18:22:30.810Z,96983.50